Time;durP1;ratioP1;P1;durP2;ratioP2;P2;SDS_P1;SDS_P2;PMS_P1;PMS_P2;Temp;Humidity;BMP_temperature;BMP_pressure;BME280_temperature;BME280_humidity;BME280_pressure;Samples;Min_cycle;Max_cycle;Signal;HPM_P1;HPM_P2
2023/05/27 00:02:10;;;;;;;3.97;2.00;;;19.10;44.00;;;;;;2313923;54;20958;-66
2023/05/27 00:04:42;;;;;;;3.65;1.62;;;19.10;44.10;;;;;;2314219;54;20971;-70
2023/05/27 00:07:08;;;;;;;;;;;19.00;44.20;;;;;;2558640;53;21008;-66
2023/05/27 00:09:35;;;;;;;3.30;1.62;;;19.00;44.40;;;;;;2554688;53;20076;-66
2023/05/27 00:12:04;;;;;;;3.62;1.50;;;19.00;44.10;;;;;;2311820;54;21050;-65
2023/05/27 00:14:30;;;;;;;4.43;1.92;;;18.90;44.40;;;;;;2548608;54;20933;-66
2023/05/27 00:16:56;;;;;;;5.68;2.03;;;18.90;44.50;;;;;;2314964;54;20972;-67
2023/05/27 00:19:26;;;;;;;6.43;2.30;;;18.90;44.70;;;;;;2313389;54;20923;-65
2023/05/27 00:21:52;;;;;;;7.55;2.58;;;18.80;44.90;;;;;;2555141;53;21701;-67
2023/05/27 00:24:20;;;;;;;4.43;2.03;;;18.80;45.00;;;;;;2554134;53;21475;-68
2023/05/27 00:26:49;;;;;;;5.95;1.83;;;18.80;45.10;;;;;;2554218;53;21061;-69
2023/05/27 00:29:16;;;;;;;4.60;1.80;;;18.80;45.10;;;;;;2554245;53;21011;-67
2023/05/27 00:31:43;;;;;;;5.60;1.80;;;18.80;45.10;;;;;;2554808;53;21755;-69
2023/05/27 00:34:09;;;;;;;4.55;1.70;;;18.70;45.10;;;;;;2314783;54;21571;-66
2023/05/27 00:36:36;;;;;;;5.87;1.75;;;18.70;45.20;;;;;;2553296;54;21003;-67
2023/05/27 00:39:02;;;;;;;3.40;1.50;;;18.70;45.20;;;;;;2312994;54;20973;-67
2023/05/27 00:41:29;;;;;;;4.70;1.65;;;18.60;45.20;;;;;;2313865;54;20978;-67
2023/05/27 00:43:56;;;;;;;4.35;1.60;;;18.60;45.40;;;;;;2315217;54;21058;-68
2023/05/27 00:46:23;;;;;;;4.62;1.80;;;18.60;45.30;;;;;;2554169;54;20975;-67
2023/05/27 00:48:51;;;;;;;5.18;1.75;;;18.50;45.30;;;;;;2314545;54;21375;-66
2023/05/27 00:51:17;;;;;;;4.15;1.90;;;18.50;45.40;;;;;;2313643;54;21420;-68
2023/05/27 00:53:44;;;;;;;4.62;1.90;;;18.50;45.50;;;;;;2313378;54;21043;-67
2023/05/27 00:56:12;;;;;;;5.20;2.08;;;18.50;45.60;;;;;;2554190;53;20975;-67
2023/05/27 00:58:40;;;;;;;3.22;1.73;;;18.50;45.70;;;;;;2549039;53;21017;-67
2023/05/27 01:01:07;;;;;;;4.50;1.62;;;18.40;45.70;;;;;;2313714;53;20947;-66
2023/05/27 01:03:33;;;;;;;3.87;1.50;;;18.40;45.70;;;;;;2313625;54;20982;-69
2023/05/27 01:06:36;;;;;;;4.60;1.92;;;18.40;45.70;;;;;;2555064;53;21015;-68
2023/05/27 01:11:44;;;;;;;3.67;1.70;;;18.40;46.30;;;;;;2554626;53;21303;-66
2023/05/27 01:14:12;;;;;;;4.72;1.40;;;18.30;46.10;;;;;;2554094;53;20986;-66
2023/05/27 01:16:43;;;;;;;4.30;1.70;;;18.30;45.70;;;;;;2314252;54;21874;-67
2023/05/27 01:19:18;;;;;;;6.32;1.98;;;18.30;45.80;;;;;;2554704;53;20943;-70
2023/05/27 01:21:47;;;;;;;3.97;1.50;;;18.30;46.10;;;;;;2314618;54;20907;-68
2023/05/27 01:24:16;;;;;;;3.62;1.33;;;18.20;46.00;;;;;;2314698;54;21066;-69
2023/05/27 01:26:43;;;;;;;3.78;1.35;;;18.20;46.00;;;;;;2314349;54;21030;-65
2023/05/27 01:29:09;;;;;;;6.97;2.10;;;18.20;46.00;;;;;;2554678;53;20979;-70
2023/05/27 01:31:44;;;;;;;5.55;2.28;;;18.10;46.00;;;;;;2553008;53;22148;-67
2023/05/27 01:34:11;;;;;;;3.75;1.67;;;18.10;46.20;;;;;;2315249;54;21756;-67
2023/05/27 01:36:51;;;;;;;4.90;1.45;;;18.10;46.20;;;;;;2550757;53;21045;-70
2023/05/27 01:39:17;;;;;;;4.00;1.77;;;18.00;46.30;;;;;;2298272;54;21042;-67
2023/05/27 01:41:43;;;;;;;3.97;1.60;;;18.00;46.10;;;;;;2312301;54;21011;-67
2023/05/27 01:44:10;;;;;;;5.47;2.28;;;18.00;46.10;;;;;;2553080;53;21974;-69
2023/05/27 01:46:36;;;;;;;4.70;1.77;;;17.90;46.20;;;;;;2310779;54;21051;-68
2023/05/27 01:49:04;;;;;;;3.92;1.52;;;17.90;46.20;;;;;;2554996;53;20923;-68
2023/05/27 01:51:31;;;;;;;4.32;1.90;;;17.90;46.30;;;;;;2313852;54;21274;-68
2023/05/27 01:53:57;;;;;;;6.07;1.90;;;17.90;46.30;;;;;;2316688;54;20937;-69
2023/05/27 01:56:24;;;;;;;4.22;1.67;;;17.80;46.30;;;;;;2311720;53;21686;-69
2023/05/27 01:58:50;;;;;;;4.57;1.60;;;17.80;46.40;;;;;;2314764;54;20971;-69
2023/05/27 02:01:17;;;;;;;3.70;1.40;;;17.70;46.30;;;;;;2314274;54;20935;-69
2023/05/27 02:03:43;;;;;;;4.47;1.52;;;17.70;46.30;;;;;;2314923;54;21046;-69
2023/05/27 02:06:10;;;;;;;3.95;1.50;;;17.70;46.40;;;;;;2314979;54;22009;-67
2023/05/27 02:08:37;;;;;;;3.80;1.60;;;17.60;46.40;;;;;;2314025;54;21445;-68
2023/05/27 02:11:03;;;;;;;3.70;1.70;;;17.60;46.50;;;;;;2314691;54;20994;-71
2023/05/27 02:13:31;;;;;;;3.33;1.55;;;17.50;46.40;;;;;;2553730;53;20974;-71
2023/05/27 02:15:57;;;;;;;3.53;1.40;;;17.50;46.40;;;;;;2322414;54;21061;-67
2023/05/27 02:18:25;;;;;;;4.10;1.77;;;17.50;46.40;;;;;;2305298;54;20926;-69
2023/05/27 02:20:51;;;;;;;4.28;1.80;;;17.40;46.50;;;;;;2554941;53;20943;-69
2023/05/27 02:23:19;;;;;;;3.87;1.60;;;17.40;46.50;;;;;;2554343;53;20912;-69
2023/05/27 02:25:45;;;;;;;3.72;1.40;;;17.30;46.50;;;;;;2554530;54;21516;-67
2023/05/27 02:28:13;;;;;;;4.68;1.58;;;17.30;46.50;;;;;;2555007;53;20994;-67
2023/05/27 02:30:40;;;;;;;3.95;1.60;;;17.20;46.50;;;;;;2314750;54;20970;-71
2023/05/27 02:33:06;;;;;;;4.57;1.42;;;17.20;46.60;;;;;;2555269;54;20942;-68
2023/05/27 02:35:34;;;;;;;3.50;1.55;;;17.20;46.60;;;;;;2314032;54;20975;-67
2023/05/27 02:38:00;;;;;;;3.25;1.48;;;17.10;46.70;;;;;;2314298;54;20975;-70
2023/05/27 02:40:29;;;;;;;4.95;1.62;;;17.10;46.80;;;;;;2313800;54;21044;-68
2023/05/27 02:42:56;;;;;;;4.45;1.80;;;17.10;46.90;;;;;;2555341;53;21034;-67
2023/05/27 02:45:24;;;;;;;3.90;1.50;;;17.00;46.80;;;;;;2314077;54;21104;-71
2023/05/27 02:47:50;;;;;;;3.47;1.58;;;17.00;46.90;;;;;;2554969;53;20935;-71
2023/05/27 02:50:16;;;;;;;3.90;1.75;;;17.00;46.90;;;;;;2314142;54;21416;-68
2023/05/27 02:52:44;;;;;;;3.60;1.45;;;16.90;46.90;;;;;;2314975;54;21023;-70
2023/05/27 02:55:11;;;;;;;4.03;1.80;;;16.90;46.90;;;;;;2314681;54;21479;-68
2023/05/27 02:57:38;;;;;;;4.47;1.90;;;16.90;47.00;;;;;;2314023;54;21030;-68
2023/05/27 03:00:09;;;;;;;3.15;1.50;;;16.90;47.10;;;;;;2555012;53;20933;-68
2023/05/27 03:02:35;;;;;;;5.05;1.60;;;16.80;47.00;;;;;;2314539;54;20943;-69
2023/05/27 03:05:01;;;;;;;3.70;1.77;;;16.80;47.00;;;;;;2554970;53;20944;-70
2023/05/27 03:07:30;;;;;;;3.70;1.65;;;16.70;47.00;;;;;;2315606;54;20922;-69
2023/05/27 03:09:57;;;;;;;3.83;1.60;;;16.70;47.10;;;;;;2314075;54;21036;-70
2023/05/27 03:12:26;;;;;;;2.58;1.40;;;16.70;47.10;;;;;;2553510;53;20971;-68
2023/05/27 03:14:52;;;;;;;5.47;1.83;;;16.60;47.10;;;;;;2315116;54;20978;-68
2023/05/27 03:17:20;;;;;;;5.40;1.77;;;16.60;47.20;;;;;;2314368;54;21536;-68
2023/05/27 03:19:46;;;;;;;3.67;1.80;;;16.50;47.20;;;;;;2553821;53;20951;-70
2023/05/27 03:22:13;;;;;;;4.60;1.60;;;16.50;47.20;;;;;;2552582;53;20943;-68
2023/05/27 03:24:49;;;;;;;3.47;1.55;;;16.50;47.30;;;;;;2313744;54;20944;-70
2023/05/27 03:27:16;;;;;;;2.45;1.20;;;16.50;47.50;;;;;;2314197;54;20947;-70
2023/05/27 03:29:42;;;;;;;4.40;2.00;;;16.50;47.40;;;;;;2552679;53;20959;-68
2023/05/27 03:32:09;;;;;;;3.95;1.60;;;16.40;47.30;;;;;;2315373;54;20963;-67
2023/05/27 03:34:36;;;;;;;3.85;1.42;;;16.40;47.40;;;;;;2539813;53;20966;-68
2023/05/27 03:37:03;;;;;;;4.43;1.80;;;16.30;47.40;;;;;;2314090;54;21019;-68
2023/05/27 03:39:30;;;;;;;3.47;1.27;;;16.30;47.40;;;;;;2552990;53;20939;-68
2023/05/27 03:41:56;;;;;;;2.95;1.85;;;16.30;47.40;;;;;;2554466;53;20931;-68
2023/05/27 03:44:23;;;;;;;3.67;1.67;;;16.30;47.60;;;;;;2313752;54;21855;-68
2023/05/27 03:46:49;;;;;;;4.12;1.75;;;16.20;47.60;;;;;;2554349;53;21010;-67
2023/05/27 03:49:16;;;;;;;5.18;2.05;;;16.20;47.60;;;;;;2313870;54;21377;-68
2023/05/27 03:51:42;;;;;;;3.42;1.70;;;16.20;47.70;;;;;;2554271;53;21409;-68
2023/05/27 03:54:09;;;;;;;4.07;1.50;;;16.10;47.70;;;;;;2314432;54;20966;-68
2023/05/27 03:56:35;;;;;;;3.60;1.40;;;16.10;47.70;;;;;;2314346;54;20977;-67
2023/05/27 03:59:01;;;;;;;3.78;1.70;;;16.10;47.70;;;;;;2316888;54;21025;-68
2023/05/27 04:01:28;;;;;;;4.18;1.75;;;16.10;47.80;;;;;;2549485;53;20963;-68
2023/05/27 04:03:54;;;;;;;2.87;1.30;;;16.00;47.80;;;;;;2315180;54;20955;-67
2023/05/27 04:06:25;;;;;;;3.58;1.40;;;16.00;47.90;;;;;;2314288;54;20995;-68
2023/05/27 04:08:52;;;;;;;4.35;1.70;;;16.00;48.00;;;;;;2314394;54;21516;-68
2023/05/27 04:11:18;;;;;;;3.60;1.87;;;15.90;47.90;;;;;;2314312;54;20991;-67
2023/05/27 04:13:46;;;;;;;3.28;1.50;;;15.90;47.90;;;;;;2554243;54;21448;-67
2023/05/27 04:16:15;;;;;;;5.30;1.60;;;15.90;48.00;;;;;;2554335;53;21043;-67
2023/05/27 04:18:42;;;;;;;4.15;1.55;;;15.90;48.00;;;;;;2314838;54;20959;-68
2023/05/27 04:21:08;;;;;;;4.65;1.67;;;15.90;48.10;;;;;;2314564;54;21901;-68
2023/05/27 04:23:37;;;;;;;3.42;1.67;;;15.80;48.10;;;;;;2314253;54;20999;-68
2023/05/27 04:26:04;;;;;;;4.53;1.55;;;15.80;48.20;;;;;;2315793;54;21073;-66
2023/05/27 04:28:31;;;;;;;3.40;1.50;;;15.80;48.20;;;;;;2293035;54;21541;-67
2023/05/27 04:30:57;;;;;;;4.03;1.80;;;15.90;48.30;;;;;;2554706;53;20960;-67
2023/05/27 04:33:23;;;;;;;4.20;1.90;;;15.80;48.40;;;;;;2314410;54;21746;-66
2023/05/27 04:35:53;;;;;;;5.60;2.92;;;15.80;48.40;;;;;;2555111;53;21851;-67
2023/05/27 04:38:20;;;;;;;4.32;2.70;;;15.80;48.50;;;;;;2314020;54;20995;-67
2023/05/27 04:40:53;;;;;;;5.78;2.53;;;15.80;48.60;;;;;;2313664;54;21022;-67
2023/05/27 04:43:19;;;;;;;4.47;2.50;;;15.80;48.70;;;;;;2553296;53;21081;-66
2023/05/27 04:45:46;;;;;;;6.35;2.78;;;15.80;48.70;;;;;;2575747;53;20996;-70
2023/05/27 04:48:12;;;;;;;5.15;2.75;;;15.80;48.80;;;;;;2318178;54;20953;-67
2023/05/27 04:50:40;;;;;;;6.18;3.17;;;15.80;48.90;;;;;;2314328;54;20987;-66
2023/05/27 04:53:09;;;;;;;4.93;2.75;;;15.80;49.00;;;;;;2555266;53;20896;-67
2023/05/27 04:55:36;;;;;;;5.57;2.50;;;15.80;49.00;;;;;;2553919;54;20976;-67
2023/05/27 04:58:03;;;;;;;6.05;2.70;;;15.80;49.10;;;;;;2315392;54;20995;-67
2023/05/27 05:00:49;;;;;;;6.43;2.55;;;15.90;49.30;;;;;;2313777;54;20959;-67
2023/05/27 05:03:21;;;;;;;6.18;2.12;;;15.80;49.30;;;;;;2552885;53;21019;-67
2023/05/27 05:05:51;;;;;;;5.20;2.28;;;15.80;49.30;;;;;;2554541;53;21059;-67
2023/05/27 05:08:18;;;;;;;5.30;2.62;;;15.90;49.50;;;;;;2552867;54;20950;-68
2023/05/27 05:10:46;;;;;;;5.25;2.25;;;15.90;49.50;;;;;;2313404;54;21354;-71
2023/05/27 05:13:16;;;;;;;5.95;2.17;;;15.90;49.60;;;;;;2554489;54;20939;-67
2023/05/27 05:15:43;;;;;;;5.45;2.58;;;15.90;49.60;;;;;;2554163;53;20959;-66
2023/05/27 05:18:10;;;;;;;6.47;2.60;;;15.90;49.60;;;;;;2554581;53;21038;-69
2023/05/27 05:20:37;;;;;;;6.00;2.72;;;16.00;49.80;;;;;;2554250;53;21496;-67
2023/05/27 05:23:04;;;;;;;4.57;2.25;;;16.00;49.80;;;;;;2547244;54;21051;-68
2023/05/27 05:25:35;;;;;;;5.57;2.40;;;16.00;49.80;;;;;;2313611;54;21028;-66
2023/05/27 05:28:01;;;;;;;4.15;2.00;;;16.00;49.80;;;;;;2314480;54;20939;-68
2023/05/27 05:30:29;;;;;;;7.55;2.12;;;16.10;49.80;;;;;;2553892;53;20943;-67
2023/05/27 05:32:56;;;;;;;4.18;1.75;;;16.10;49.90;;;;;;2554957;53;20959;-68
2023/05/27 05:35:22;;;;;;;4.87;1.80;;;16.10;49.80;;;;;;2314810;54;21623;-67
2023/05/27 05:37:49;;;;;;;6.37;2.22;;;16.20;49.90;;;;;;2548414;53;21446;-68
2023/05/27 05:40:15;;;;;;;4.35;2.00;;;16.20;50.00;;;;;;2554503;53;21008;-66
2023/05/27 05:42:42;;;;;;;5.28;1.80;;;16.20;50.00;;;;;;2313507;54;20963;-68
2023/05/27 05:45:13;;;;;;;5.20;1.80;;;16.30;50.00;;;;;;2314686;54;21003;-69
2023/05/27 05:47:43;;;;;;;6.18;2.10;;;16.30;50.20;;;;;;2554036;53;20967;-68
2023/05/27 05:50:09;;;;;;;6.72;2.05;;;16.30;50.00;;;;;;2523576;54;20927;-68
2023/05/27 05:52:36;;;;;;;5.45;1.83;;;16.40;50.10;;;;;;2553672;53;21007;-67
2023/05/27 05:55:08;;;;;;;4.25;2.03;;;16.40;50.10;;;;;;2314225;54;21003;-67
2023/05/27 05:57:34;;;;;;;6.72;2.10;;;16.40;50.10;;;;;;2553965;53;21002;-68
2023/05/27 06:00:01;;;;;;;7.85;2.53;;;16.50;50.20;;;;;;2314617;54;21038;-69
2023/05/27 06:02:27;;;;;;;5.22;1.90;;;16.50;50.20;;;;;;2314182;54;21947;-71
2023/05/27 06:04:54;;;;;;;6.80;2.10;;;16.50;50.30;;;;;;2553554;54;21035;-67
2023/05/27 06:07:23;;;;;;;5.43;1.75;;;16.60;50.40;;;;;;2554099;53;21054;-68
2023/05/27 06:09:49;;;;;;;4.65;1.90;;;16.70;50.50;;;;;;2553688;53;20946;-67
2023/05/27 06:12:23;;;;;;;5.12;2.22;;;16.70;50.40;;;;;;2553630;53;20947;-68
2023/05/27 06:14:50;;;;;;;5.85;2.15;;;16.70;50.40;;;;;;2313854;54;21182;-68
2023/05/27 06:17:16;;;;;;;4.72;2.17;;;16.80;50.40;;;;;;2555004;53;20975;-68
2023/05/27 06:19:43;;;;;;;6.50;2.22;;;16.80;50.40;;;;;;2313931;54;20943;-69
2023/05/27 06:22:11;;;;;;;4.95;1.80;;;16.80;50.40;;;;;;2554769;53;20955;-71
2023/05/27 06:24:38;;;;;;;7.90;2.00;;;16.90;50.60;;;;;;2314004;54;21054;-67
2023/05/27 06:27:05;;;;;;;6.80;2.00;;;17.00;50.60;;;;;;2554656;53;20994;-67
2023/05/27 06:29:31;;;;;;;6.03;2.17;;;17.00;50.60;;;;;;2313656;54;20982;-66
2023/05/27 06:31:57;;;;;;;6.68;2.40;;;17.10;50.60;;;;;;2554979;53;20963;-68
2023/05/27 06:34:24;;;;;;;6.18;1.67;;;17.10;50.70;;;;;;2553498;53;20966;-69
2023/05/27 06:36:50;;;;;;;4.95;1.65;;;17.20;50.80;;;;;;2313909;54;20967;-66
2023/05/27 06:39:17;;;;;;;6.43;2.05;;;17.20;50.80;;;;;;2316915;54;21004;-70
2023/05/27 06:41:44;;;;;;;4.68;1.70;;;17.30;50.70;;;;;;2309690;53;20963;-68
2023/05/27 06:44:11;;;;;;;5.28;2.08;;;17.30;50.70;;;;;;2315303;54;20931;-69
2023/05/27 06:46:37;;;;;;;6.32;2.22;;;17.40;50.70;;;;;;2552482;54;20978;-69
2023/05/27 06:49:03;;;;;;;5.37;2.08;;;17.50;50.60;;;;;;2314094;54;20991;-70
2023/05/27 06:51:32;;;;;;;8.35;2.10;;;17.50;50.60;;;;;;2315077;54;20932;-71
2023/05/27 06:53:59;;;;;;;5.40;1.85;;;17.60;50.60;;;;;;2312340;54;20943;-70
2023/05/27 06:56:29;;;;;;;6.18;1.95;;;17.60;50.60;;;;;;2315616;54;22003;-69
2023/05/27 06:58:55;;;;;;;5.80;1.90;;;17.70;50.60;;;;;;2311555;53;21066;-70
2023/05/27 07:01:22;;;;;;;5.95;2.03;;;17.70;51.10;;;;;;2314015;54;21030;-66
2023/05/27 07:03:50;;;;;;;6.35;2.30;;;17.80;50.60;;;;;;2313116;54;21022;-71
2023/05/27 07:06:17;;;;;;;6.68;2.08;;;17.90;50.70;;;;;;2314386;54;20950;-69
2023/05/27 07:08:43;;;;;;;5.22;1.95;;;18.00;50.90;;;;;;2313656;54;21027;-68
2023/05/27 07:11:10;;;;;;;4.40;1.83;;;18.00;50.80;;;;;;2313546;54;20981;-71
2023/05/27 07:13:36;;;;;;;5.43;2.05;;;18.10;50.80;;;;;;2553318;53;21010;-67
2023/05/27 07:16:05;;;;;;;6.20;1.92;;;18.20;50.90;;;;;;2314983;54;21950;-67
2023/05/27 07:18:41;;;;;;;6.47;2.00;;;18.30;50.90;;;;;;2554144;53;20947;-71
2023/05/27 07:21:07;;;;;;;6.53;2.17;;;18.30;50.90;;;;;;2554832;53;21420;-69
2023/05/27 07:23:33;;;;;;;5.90;2.03;;;18.40;50.90;;;;;;2316198;54;20918;-72
2023/05/27 07:26:00;;;;;;;5.65;1.92;;;18.50;50.80;;;;;;2307123;54;21966;-67
2023/05/27 07:28:27;;;;;;;5.62;1.80;;;18.60;50.70;;;;;;2549652;53;20963;-71
2023/05/27 07:30:54;;;;;;;4.28;1.90;;;18.60;50.60;;;;;;2553971;53;21594;-68
2023/05/27 07:33:23;;;;;;;6.82;2.10;;;18.70;50.60;;;;;;2554916;53;20943;-68
2023/05/27 07:35:49;;;;;;;5.60;1.92;;;18.80;50.70;;;;;;2309755;54;21018;-72
2023/05/27 07:38:15;;;;;;;5.18;1.83;;;18.90;50.70;;;;;;2314370;54;21010;-71
2023/05/27 07:40:41;;;;;;;5.12;1.90;;;18.90;50.60;;;;;;2554008;53;20947;-69
2023/05/27 07:43:08;;;;;;;5.85;2.20;;;19.00;50.60;;;;;;2555147;54;20973;-70
2023/05/27 07:45:38;;;;;;;6.07;2.03;;;19.10;50.70;;;;;;2554032;53;21984;-68
2023/05/27 07:48:04;;;;;;;4.03;1.90;;;19.20;50.70;;;;;;2554606;53;20987;-73
2023/05/27 07:50:33;;;;;;;5.12;2.10;;;19.30;50.70;;;;;;2550384;53;21402;-68
2023/05/27 07:53:00;;;;;;;5.72;2.00;;;19.40;50.80;;;;;;2307478;54;20962;-68
2023/05/27 07:55:27;;;;;;;6.50;2.20;;;19.50;50.70;;;;;;2554074;53;21359;-68
2023/05/27 07:57:57;;;;;;;7.47;2.25;;;19.50;50.60;;;;;;2314297;54;21898;-69
2023/05/27 08:00:23;;;;;;;5.15;1.83;;;19.60;50.50;;;;;;2314598;54;21031;-69
2023/05/27 08:02:50;;;;;;;6.47;2.00;;;19.70;50.50;;;;;;2553765;53;21436;-69
2023/05/27 08:05:16;;;;;;;4.87;2.08;;;19.80;50.60;;;;;;2315359;54;21012;-70
2023/05/27 08:07:43;;;;;;;8.60;2.80;;;19.90;50.60;;;;;;2314412;54;21400;-69
2023/05/27 08:10:09;;;;;;;6.95;1.90;;;20.00;50.40;;;;;;2554514;54;20940;-70
2023/05/27 08:12:37;;;;;;;6.57;1.80;;;20.10;50.50;;;;;;2312919;54;21891;-69
2023/05/27 08:15:05;;;;;;;5.15;2.20;;;20.10;50.50;;;;;;2314666;54;20951;-71
2023/05/27 08:17:32;;;;;;;7.30;2.05;;;20.20;50.50;;;;;;2554319;53;20955;-71
2023/05/27 08:19:58;;;;;;;6.45;2.35;;;20.30;50.30;;;;;;2554847;53;21015;-69
2023/05/27 08:22:25;;;;;;;6.07;1.87;;;20.40;50.30;;;;;;2554465;54;21872;-69
2023/05/27 08:24:54;;;;;;;6.68;2.05;;;20.50;50.40;;;;;;2554074;53;21026;-72
2023/05/27 08:27:49;;;;;;;10.32;2.58;;;20.60;50.50;;;;;;2314304;54;20962;-69
2023/05/27 08:30:16;;;;;;;6.62;2.30;;;20.70;50.50;;;;;;2522862;54;20994;-73
2023/05/27 08:32:42;;;;;;;6.18;2.40;;;20.80;50.40;;;;;;2313399;54;21007;-69
2023/05/27 08:35:10;;;;;;;5.57;2.15;;;20.90;50.30;;;;;;2554189;53;20971;-69
2023/05/27 08:37:38;;;;;;;10.30;3.08;;;21.00;50.10;;;;;;2554115;53;21019;-70
2023/05/27 08:40:07;;;;;;;6.32;2.10;;;21.00;50.00;;;;;;2554901;53;21043;-71
2023/05/27 08:42:33;;;;;;;6.22;2.15;;;21.10;50.20;;;;;;2552688;53;20986;-70
2023/05/27 08:45:03;;;;;;;4.40;1.70;;;21.20;50.20;;;;;;2302941;54;21007;-70
2023/05/27 08:47:30;;;;;;;9.63;2.37;;;21.30;50.10;;;;;;2315265;54;21022;-70
2023/05/27 08:49:58;;;;;;;5.53;2.00;;;21.40;50.00;;;;;;2553669;53;20986;-72
2023/05/27 08:52:27;;;;;;;6.65;2.33;;;21.40;49.70;;;;;;2314729;54;20955;-70
2023/05/27 08:54:54;;;;;;;7.15;2.03;;;21.50;49.60;;;;;;2554158;53;20998;-69
2023/05/27 08:57:22;;;;;;;7.15;2.12;;;21.50;49.50;;;;;;2554838;53;20959;-69
2023/05/27 08:59:48;;;;;;;6.25;2.05;;;21.60;49.60;;;;;;2553914;53;20951;-68
2023/05/27 09:02:18;;;;;;;4.65;2.10;;;21.70;49.80;;;;;;2314945;54;20931;-68
2023/05/27 09:04:45;;;;;;;5.85;1.80;;;21.80;49.90;;;;;;2313081;54;21444;-68
2023/05/27 09:07:11;;;;;;;6.57;2.03;;;21.80;49.80;;;;;;2554012;53;20979;-68
2023/05/27 09:09:38;;;;;;;5.50;2.03;;;21.90;49.70;;;;;;2313825;54;21007;-71
2023/05/27 09:12:05;;;;;;;4.87;2.10;;;22.00;49.60;;;;;;2554792;54;21011;-70
2023/05/27 09:14:32;;;;;;;8.35;2.10;;;22.00;49.50;;;;;;2554474;53;20979;-68
2023/05/27 09:17:04;;;;;;;6.72;2.08;;;22.10;49.30;;;;;;2314565;54;20986;-71
2023/05/27 09:19:33;;;;;;;5.97;2.20;;;22.20;49.10;;;;;;2554201;53;21078;-68
2023/05/27 09:21:59;;;;;;;4.80;2.15;;;22.30;49.10;;;;;;2314374;54;20975;-72
2023/05/27 09:24:26;;;;;;;9.05;2.72;;;22.30;48.90;;;;;;2314386;54;20943;-69
2023/05/27 09:26:53;;;;;;;5.28;2.20;;;22.40;48.90;;;;;;2553199;53;21446;-70
2023/05/27 09:29:20;;;;;;;5.78;2.00;;;22.40;48.80;;;;;;2315325;54;21086;-69
2023/05/27 09:31:48;;;;;;;11.80;2.80;;;22.50;48.70;;;;;;2553740;53;21090;-69
2023/05/27 09:34:15;;;;;;;7.45;2.20;;;22.50;48.60;;;;;;2554911;53;21038;-69
2023/05/27 09:36:45;;;;;;;7.95;2.25;;;22.60;48.70;;;;;;2553834;54;21404;-69
2023/05/27 09:39:15;;;;;;;7.47;2.28;;;22.60;48.90;;;;;;2553345;53;20939;-72
2023/05/27 09:41:42;;;;;;;4.55;1.90;;;22.60;48.70;;;;;;2553540;53;20975;-68
2023/05/27 09:44:08;;;;;;;7.53;2.08;;;22.70;48.70;;;;;;2314133;54;21034;-71
2023/05/27 09:46:35;;;;;;;5.68;1.80;;;22.80;48.70;;;;;;2313389;54;21010;-70
2023/05/27 09:49:02;;;;;;;5.47;2.05;;;22.80;48.90;;;;;;2554667;53;20990;-70
2023/05/27 09:51:29;;;;;;;5.72;1.90;;;22.90;48.90;;;;;;2554551;53;20975;-71
2023/05/27 09:53:58;;;;;;;8.77;2.10;;;23.00;48.80;;;;;;2314301;54;20935;-68
2023/05/27 09:56:26;;;;;;;5.37;1.95;;;23.10;48.60;;;;;;2554598;53;20939;-70
2023/05/27 09:58:55;;;;;;;4.68;2.22;;;23.10;48.60;;;;;;2313503;54;21049;-72
2023/05/27 10:01:25;;;;;;;6.82;2.33;;;23.20;48.50;;;;;;2554412;53;21023;-68
2023/05/27 10:03:52;;;;;;;5.28;1.90;;;23.30;48.50;;;;;;2313271;54;21726;-71
2023/05/27 10:06:18;;;;;;;5.40;2.28;;;23.30;48.40;;;;;;2554525;53;21011;-69
2023/05/27 10:08:44;;;;;;;4.12;1.87;;;23.40;48.30;;;;;;2552063;53;20920;-71
2023/05/27 10:11:11;;;;;;;3.95;1.83;;;23.50;48.20;;;;;;2311318;54;21105;-69
2023/05/27 10:13:37;;;;;;;5.47;1.95;;;23.50;48.10;;;;;;2313829;54;21053;-70
2023/05/27 10:16:04;;;;;;;5.00;2.10;;;23.60;48.00;;;;;;2554447;53;20986;-70
2023/05/27 10:18:31;;;;;;;4.20;2.10;;;23.70;48.00;;;;;;2313194;54;21436;-69
2023/05/27 10:20:57;;;;;;;4.93;2.22;;;23.80;47.80;;;;;;2313822;54;20955;-69
2023/05/27 10:23:25;;;;;;;5.93;2.35;;;23.80;47.90;;;;;;2554235;54;20947;-71
2023/05/27 10:25:56;;;;;;;5.07;2.17;;;23.90;48.10;;;;;;2553116;54;21010;-70
2023/05/27 10:28:29;;;;;;;5.22;1.65;;;23.90;48.20;;;;;;2553174;53;20973;-70
2023/05/27 10:32:47;;;;;;;6.28;2.22;;;24.00;48.30;;;;;;2553115;53;21014;-71
2023/05/27 10:35:15;;;;;;;5.93;2.25;;;24.20;48.20;;;;;;2314635;54;21440;-70
2023/05/27 10:37:41;;;;;;;3.95;1.70;;;24.20;47.90;;;;;;2312675;54;20980;-70
2023/05/27 10:40:10;;;;;;;7.45;2.22;;;24.30;47.70;;;;;;2550909;53;21057;-69
2023/05/27 10:42:36;;;;;;;5.25;2.15;;;24.40;47.80;;;;;;2313776;54;21702;-70
2023/05/27 10:45:07;;;;;;;6.60;2.45;;;24.50;47.60;;;;;;2313887;54;20983;-70
2023/05/27 10:47:36;;;;;;;5.82;2.20;;;24.50;47.80;;;;;;2553442;53;21007;-70
2023/05/27 10:50:15;;;;;;;6.90;2.45;;;24.60;47.60;;;;;;2553404;53;20971;-71
2023/05/27 10:52:42;;;;;;;6.35;2.10;;;24.70;47.10;;;;;;2312438;54;21971;-71
2023/05/27 10:55:08;;;;;;;5.07;1.90;;;24.80;47.40;;;;;;2313401;54;20947;-70
2023/05/27 10:57:35;;;;;;;6.72;2.60;;;24.80;47.30;;;;;;2313318;54;21366;-70
2023/05/27 11:00:03;;;;;;;5.15;2.15;;;24.90;47.20;;;;;;2314010;54;21457;-73
2023/05/27 11:02:31;;;;;;;6.00;2.47;;;25.00;47.00;;;;;;2313691;54;20974;-70
2023/05/27 11:04:57;;;;;;;4.53;2.00;;;25.00;46.90;;;;;;2313169;54;21038;-70
2023/05/27 11:07:24;;;;;;;5.05;2.53;;;25.00;46.90;;;;;;2313446;54;1283618;-73
2023/05/27 11:09:54;;;;;;;5.28;1.95;;;25.10;47.00;;;;;;2313962;54;20963;-69
2023/05/27 11:12:24;;;;;;;6.65;2.33;;;25.10;46.90;;;;;;2553717;53;20938;-71
2023/05/27 11:14:51;;;;;;;5.72;2.33;;;25.20;46.80;;;;;;2548857;53;21702;-72
2023/05/27 11:17:18;;;;;;;4.82;2.10;;;25.30;47.00;;;;;;2314230;54;21765;-69
2023/05/27 11:19:45;;;;;;;5.80;2.35;;;25.30;47.10;;;;;;2313751;54;20967;-70
2023/05/27 11:22:12;;;;;;;7.00;2.40;;;25.40;46.80;;;;;;2554368;54;21034;-72
2023/05/27 11:24:39;;;;;;;6.03;2.60;;;25.50;46.60;;;;;;2552512;53;21459;-67
2023/05/27 11:27:14;;;;;;;6.05;2.40;;;25.50;46.50;;;;;;2313651;54;21488;-68
2023/05/27 11:29:49;;;;;;;6.55;2.37;;;25.60;46.10;;;;;;2313239;54;20971;-70
2023/05/27 11:32:16;;;;;;;5.95;2.10;;;25.60;46.00;;;;;;2314160;54;20975;-70
2023/05/27 11:34:43;;;;;;;5.47;1.85;;;25.60;46.00;;;;;;2314242;54;21110;-68
2023/05/27 11:37:10;;;;;;;4.37;2.08;;;25.70;46.00;;;;;;2313596;54;20970;-69
2023/05/27 11:39:37;;;;;;;5.87;2.10;;;25.70;46.00;;;;;;2553846;54;21031;-70
2023/05/27 11:42:08;;;;;;;5.22;2.03;;;25.70;46.10;;;;;;2551428;53;20993;-67
2023/05/27 11:44:34;;;;;;;5.53;2.28;;;25.80;46.20;;;;;;2311908;54;20963;-70
2023/05/27 11:47:02;;;;;;;5.75;2.47;;;25.90;46.10;;;;;;2314474;53;21009;-69
2023/05/27 11:49:30;;;;;;;4.72;2.03;;;25.90;46.00;;;;;;2311830;53;20959;-68
2023/05/27 11:51:57;;;;;;;8.88;2.05;;;26.00;45.80;;;;;;2552953;53;20939;-68
2023/05/27 11:54:30;;;;;;;6.15;2.83;;;26.00;45.70;;;;;;2521442;54;20911;-69
2023/05/27 11:56:57;;;;;;;7.50;3.10;;;26.10;45.50;;;;;;2313073;54;20991;-69
2023/05/27 11:59:23;;;;;;;5.90;2.62;;;26.20;45.30;;;;;;2554167;53;21015;-68
2023/05/27 12:01:49;;;;;;;5.40;2.35;;;26.20;45.10;;;;;;2313323;54;21011;-69
2023/05/27 12:04:17;;;;;;;7.05;2.50;;;26.30;45.10;;;;;;2314079;54;21082;-71
2023/05/27 12:06:44;;;;;;;5.72;2.40;;;26.30;45.00;;;;;;2313746;54;20962;-68
2023/05/27 12:09:10;;;;;;;6.55;2.60;;;26.30;45.00;;;;;;2553781;54;21998;-66
2023/05/27 12:11:37;;;;;;;6.90;2.58;;;26.40;45.10;;;;;;2554335;54;21030;-70
2023/05/27 12:14:04;;;;;;;5.80;2.47;;;26.40;45.20;;;;;;2313987;54;20968;-68
2023/05/27 12:16:30;;;;;;;6.15;2.70;;;26.50;45.00;;;;;;2314269;54;20978;-70
2023/05/27 12:18:58;;;;;;;7.57;2.78;;;26.50;44.90;;;;;;2554243;53;20990;-70
2023/05/27 12:21:24;;;;;;;6.10;2.50;;;26.60;44.70;;;;;;2554537;53;20919;-68
2023/05/27 12:23:51;;;;;;;6.00;2.35;;;26.60;44.50;;;;;;2314351;54;21009;-69
2023/05/27 12:26:17;;;;;;;5.68;2.10;;;26.70;44.50;;;;;;2312575;54;21007;-70
2023/05/27 12:28:43;;;;;;;5.78;2.72;;;26.70;44.40;;;;;;2313588;54;21035;-69
2023/05/27 12:31:10;;;;;;;6.43;2.70;;;26.70;44.40;;;;;;2553945;53;21009;-66
2023/05/27 12:33:37;;;;;;;6.15;2.30;;;26.80;44.30;;;;;;2313987;54;20983;-69
2023/05/27 12:36:05;;;;;;;9.95;2.58;;;26.90;44.30;;;;;;2314258;54;20947;-71
2023/05/27 12:38:31;;;;;;;6.45;2.20;;;26.90;44.30;;;;;;2314696;54;20963;-68
2023/05/27 12:40:58;;;;;;;6.18;2.40;;;27.00;44.40;;;;;;2553998;53;21488;-67
2023/05/27 12:43:26;;;;;;;6.80;2.80;;;27.00;44.40;;;;;;2549179;53;21034;-67
2023/05/27 12:45:52;;;;;;;7.60;2.83;;;27.10;44.10;;;;;;2313978;54;21067;-70
2023/05/27 12:48:22;;;;;;;5.15;2.30;;;27.10;44.00;;;;;;2314600;54;21023;-65
2023/05/27 12:50:48;;;;;;;6.47;2.30;;;27.20;43.90;;;;;;2554148;53;21883;-68
2023/05/27 12:53:18;;;;;;;5.53;2.30;;;27.20;44.10;;;;;;2554765;54;21464;-68
2023/05/27 12:55:47;;;;;;;5.65;2.50;;;27.30;44.00;;;;;;2554335;53;21034;-68